Pagina principală
METAR-TAF:

METAR-TAF

Aeroporturi :

Meridian Regional Airport (Key Field)

Meridian, Mississippi, Statele Unite ale Americii

Latitudine: 32-20-17N, longitudine: 088-44-52W, elevație: 90 m

Observații meteo curente

Raportul a fost făcut în urmă cu 48 de minute, la 02:58 UTC
Vânt calm
Temperatură 24°C
Umiditate 83%
Presiune 1015 hPa
Vizibilitate: 16.1 km
Nori puțini la o înălțime de 6500 picior

METAR: KMEI 280258Z 00000KT 10SM FEW065 24/21 A2998 RMK AO2 SLP147 T02390211 53032 $

Ora: 22:46 (03:46 UTC)

Prognoză

Raportul a fost făcut în urmă cu 4 ore și 26 de minute, la 23:20 UTC
Prognoză valabilă de la 28 ora 00 UTC la 28 ora 24 UTC
Vânt 5 kt de la Nord/Nord-vest
Vizibilitate: 10 km
Nori împrăștiați la o înălțime de 6000 picior

TAF: KMEI 272320Z 2800/2824 33005KT P6SM SCT060

Observații și prognoze meteo pentru peste 4.000 de aeroporturi (rapoarte METAR și TAF).

Stațiile disponibile sunt reprezentate pe hartă prin puncte galbene și roșii.

Țineți indicatorul mouse-ului pe punctul dorit pentru a vedea denumirea stației.

Apoi, faceți clic pentru a vedea observațiile și prognozele meteorologice.

Pentru a schimba harta: Pentru mărire, faceți clic pe butoanele verzi cu cruce neagră; pentru micșorare, pe butonul verde cu o liniuță; pentru hărți învecinate, pe săgețile verzi.


METAR-TAF: